Latest Weather Observations for Kadina

IDS60801

Issued at 7:05 pm CDT Thursday 23 October 2014 (issued every 30 minutes, with the page automatically refreshed every 10 minutes)

About weather observations | Map of weather stations | Latest weather observations for SA | Other Formats
Station Details ID: 022050 Name: KADINA AWS Lat: -33.97 Lon: 137.66 Height: 41.14 m
Data from the previous 72 hours. | See also: Recent months at Kadina
Date/Time
CDT
Temp
°C
App
Temp
°C
Dew
Point
Rel
Hum
%
Delta-T
°C
Wind Press
QNH
hPa
Press
MSL
hPa
Rain
since 9 am
mm
Dir
 
Spd
km/h
Gust
km/h
Spd
kts
Gust
kts
23/07:00pm 18.9 16.5 14.4 75 2.6 WSW 20 28 11 15 1014.9 - 0.0
23/06:30pm 23.7 20.8 13.0 51 6.2 SW 20 26 11 14 1014.6 - 0.0
23/06:00pm 23.4 21.0 12.7 51 6.1 S 17 20 9 11 1014.1 1013.9 0.0
23/05:30pm 23.3 20.8 13.5 54 5.7 SW 19 22 10 12 1014.3 - 0.0
23/05:00pm 21.5 19.1 13.9 62 4.4 WSW 19 28 10 15 1014.3 - 0.0
23/04:30pm 21.6 18.6 13.8 61 4.5 WSW 22 30 12 16 1014.5 - 0.0
23/04:00pm 21.3 18.1 13.2 60 4.6 WSW 22 30 12 16 1014.6 - 0.0
23/03:30pm 22.4 19.7 13.5 57 5.2 WSW 20 30 11 16 1014.8 - 0.0
23/03:00pm 20.9 17.2 12.8 60 4.6 WSW 24 32 13 17 1014.9 1014.7 0.0
23/02:30pm 21.8 18.2 13.2 58 4.9 WSW 24 33 13 18 1015.2 - 0.0
23/02:00pm 21.5 17.9 12.9 58 4.9 WSW 24 33 13 18 1015.5 - 0.0
23/01:30pm 22.3 19.6 12.8 55 5.4 WSW 19 24 10 13 1015.7 - 0.0
23/01:00pm 22.2 20.2 12.7 55 5.4 SW 15 22 8 12 1015.8 - 0.0
23/12:30pm 22.2 20.3 13.0 56 5.3 SW 15 20 8 11 1016.3 - 0.0
23/12:00pm 21.1 18.8 13.0 60 4.6 W 17 28 9 15 1016.8 1016.7 0.0
23/11:30am 19.7 16.9 12.5 63 4.0 W 19 24 10 13 1017.3 - 0.0
23/11:00am 19.6 16.7 12.8 65 3.8 WNW 20 28 11 15 1017.8 - 0.0
23/10:30am 20.6 19.5 12.1 58 4.8 E 9 15 5 8 1017.7 - 0.0
23/10:00am 18.9 18.6 12.6 67 3.5 WSW 6 13 3 7 1017.8 - 0.0
23/09:30am 18.6 17.3 12.4 67 3.5 ENE 11 17 6 9 1017.9 - 0.0
23/09:00am 16.8 15.8 12.3 75 2.5 ESE 9 15 5 8 1018.3 1018.2 0.0
23/08:30am 16.2 14.7 12.0 76 2.3 ESE 11 19 6 10 1018.6 - 0.0
23/08:00am 15.4 13.6 12.0 80 1.8 SE 13 17 7 9 1018.6 - 0.0
23/07:30am 14.6 12.7 11.7 83 1.6 SE 13 20 7 11 1018.8 - 0.0
23/07:00am 14.3 12.7 11.6 84 1.4 SSE 11 17 6 9 1018.8 - 0.0
23/06:30am 14.2 12.2 11.5 84 1.4 SE 13 19 7 10 1018.4 - 0.0
23/06:00am 14.4 12.1 11.7 84 1.4 SE 15 19 8 10 1018.2 1018.1 0.0
23/05:30am 14.3 12.0 11.8 85 1.3 SSE 15 20 8 11 1018.1 - 0.0
23/05:00am 14.3 12.7 11.6 84 1.4 SSE 11 17 6 9 1018.2 - 0.0
23/04:30am 14.3 12.8 11.8 85 1.3 S 11 19 6 10 1018.2 - 0.0
23/04:00am 14.5 12.7 12.0 85 1.4 S 13 20 7 11 1018.3 - 0.0
23/03:30am 14.4 11.4 11.9 85 1.3 S 19 24 10 13 1018.4 - 0.0
23/03:00am 14.6 12.0 12.1 85 1.4 S 17 22 9 12 1018.4 1018.3 0.0
23/02:30am 14.7 12.2 12.2 85 1.4 S 17 24 9 13 1018.5 - 0.0
23/02:00am 14.9 12.4 12.4 85 1.4 S 17 20 9 11 1018.7 - 0.0
23/01:30am 14.8 12.7 12.3 85 1.4 S 15 20 8 11 1019.3 - 0.0
23/01:00am 14.8 12.7 12.3 85 1.4 SSE 15 19 8 10 1019.9 - 0.0
23/12:30am 14.4 13.0 12.1 86 1.2 S 11 15 6 8 1020.1 - 0.0
23/12:00am 14.0 13.3 12.0 88 1.1 S 7 11 4 6 1020.1 1020.0 0.0
 
Date/Time
CDT
Temp
°C
App
Temp
°C
Dew
Point
Rel
Hum
%
Delta-T
°C
Wind Press
QNH
hPa
Press
MSL
hPa
Rain
since 9 am
mm
Dir
 
Spd
km/h
Gust
km/h
Spd
kts
Gust
kts
22/11:30pm 12.8 11.2 11.4 91 0.7 S 11 15 6 8 1020.2 - 0.0
22/11:00pm 12.1 10.1 10.2 88 1.0 SSE 11 15 6 8 1020.2 - 0.0
22/10:30pm 13.3 11.6 11.2 87 1.1 SSE 11 13 6 7 1020.2 - 0.0
22/10:00pm 14.5 12.3 12.0 85 1.4 S 15 20 8 11 1020.2 - 0.0
22/09:30pm 15.0 12.8 12.0 82 1.6 S 15 20 8 11 1019.9 - 0.0
22/09:00pm 15.5 13.7 12.1 80 1.8 S 13 15 7 8 1019.6 1019.5 0.0
22/08:30pm 17.0 14.7 12.9 77 2.3 S 17 20 9 11 1019.0 - 0.0
22/08:00pm 18.1 15.4 13.6 75 2.6 SSW 20 26 11 14 1018.6 - 0.0
22/07:30pm 18.9 15.9 13.7 72 3.0 SSW 22 32 12 17 1018.2 - 0.0
22/07:00pm 19.8 16.5 14.0 69 3.3 SSW 24 32 13 17 1018.1 - 0.0
22/06:30pm 20.5 17.3 14.2 67 3.7 SW 24 35 13 19 1017.8 - 0.0
22/06:00pm 20.3 16.3 15.3 73 3.0 SW 30 39 16 21 1017.7 1017.6 0.0
22/05:30pm 21.1 17.5 15.2 69 3.5 SW 28 39 15 21 1017.5 - 0.0
22/05:00pm 23.3 19.5 14.8 59 5.1 SW 28 39 15 21 1017.2 - 0.0
22/04:30pm 24.5 20.3 14.6 54 5.9 SW 30 41 16 22 1017.2 - 0.0
22/04:00pm 22.7 18.4 15.3 63 4.4 SW 32 41 17 22 1017.3 - 0.0
22/03:30pm 22.2 17.7 14.8 63 4.4 SW 32 41 17 22 1017.4 - 0.0
22/03:00pm 22.1 17.0 14.7 63 4.4 SW 35 46 19 25 1017.6 1017.5 0.0
22/02:30pm 21.7 16.2 14.6 64 4.2 SW 37 46 20 25 1017.7 - 0.0
22/02:00pm 22.4 17.8 15.0 63 4.4 WSW 33 44 18 24 1017.7 - 0.0
22/01:30pm 23.3 18.7 15.1 60 4.9 SW 33 43 18 23 1017.7 - 0.0
22/01:00pm 21.7 16.8 15.3 67 3.8 SW 35 46 19 25 1017.9 - 0.0
22/12:30pm 22.1 17.5 15.0 64 4.2 SW 33 46 18 25 1018.0 - 0.0
22/12:00pm 22.9 18.8 15.0 61 4.7 WSW 30 39 16 21 1018.0 1017.9 0.0
22/11:30am 22.1 18.0 15.0 64 4.2 WSW 30 39 16 21 1018.0 - 0.0
22/11:00am 22.9 19.4 14.5 59 5.0 WSW 26 33 14 18 1018.0 - 0.0
22/10:30am 23.2 20.4 14.2 57 5.3 WSW 22 30 12 16 1018.1 - 0.0
22/10:00am 23.0 20.4 13.8 56 5.4 WSW 20 32 11 17 1018.2 - 0.0
22/09:30am 23.6 21.1 9.6 41 7.6 SW 13 19 7 10 1018.0 - 0.0
22/09:00am 22.1 20.3 9.6 45 6.7 SW 9 17 5 9 1017.8 1017.7 0.0
22/08:30am 21.6 19.4 9.5 46 6.5 SW 11 15 6 8 1017.2 - 0.0
22/08:00am 19.7 18.3 9.6 52 5.4 S 7 11 4 6 1017.0 - 0.0
22/07:30am 17.4 15.8 10.3 63 3.8 S 9 13 5 7 1016.3 - 0.0
22/07:00am 17.4 16.1 10.1 62 3.9 WSW 7 11 4 6 1016.1 - 0.0
22/06:30am 17.6 15.1 10.9 65 3.6 SW 15 20 8 11 1015.7 - 0.0
22/06:00am 17.4 15.1 11.9 70 3.0 SW 15 20 8 11 1015.4 1015.3 0.0
22/05:30am 17.3 15.5 12.0 71 2.9 SSW 13 17 7 9 1015.1 - 0.0
22/05:00am 18.0 15.4 10.6 62 4.0 SSW 15 19 8 10 1015.0 - 0.0
22/04:30am 19.3 16.8 11.1 59 4.5 SW 15 19 8 10 1014.8 - 0.0
22/04:00am 18.4 15.0 3.8 38 6.9 SE 11 13 6 7 1014.5 - 0.0
22/03:30am 19.4 16.9 4.7 38 7.1 SSE 7 9 4 5 1014.8 - 0.0
22/03:00am 20.5 17.0 5.3 37 7.5 S 13 15 7 8 1014.9 1014.7 0.0
22/02:30am 23.0 17.8 5.4 32 8.8 W 22 30 12 16 1014.9 - 0.0
22/02:04am 26.8 22.6 5.7 26 10.9 ESE 17 28 9 15 1014.7 - 0.0
22/02:00am 21.3 17.7 5.2 35 8.0 W 13 26 7 14 1015.2 - 0.0
22/01:30am 23.8 19.2 3.7 27 9.8 W 17 20 9 11 1015.9 - 0.0
22/01:15am 21.1 16.2 4.2 33 8.2 SW 19 30 10 16 1015.7 - 0.0
22/01:00am 15.9 12.5 4.0 45 5.5 E 11 13 6 7 1015.3 - 0.0
22/12:30am 16.7 13.2 3.7 42 6.0 ESE 11 13 6 7 1015.4 - 0.0
22/12:00am 16.7 12.9 3.7 42 6.0 E 13 13 7 7 1015.6 1015.5 0.0
 
Date/Time
CDT
Temp
°C
App
Temp
°C
Dew
Point
Rel
Hum
%
Delta-T
°C
Wind Press
QNH
hPa
Press
MSL
hPa
Rain
since 9 am
mm
Dir
 
Spd
km/h
Gust
km/h
Spd
kts
Gust
kts
21/11:30pm 17.8 13.6 4.0 40 6.5 ESE 15 17 8 9 1016.0 - 0.0
21/11:00pm 19.0 14.8 4.0 37 7.1 ESE 15 17 8 9 1016.2 - 0.0
21/10:30pm 21.3 17.1 4.0 32 8.4 ESE 15 19 8 10 1016.5 - 0.0
21/10:00pm 22.1 18.1 5.1 33 8.4 E 15 17 8 9 1016.6 - 0.0
21/09:30pm 22.6 18.5 4.6 31 8.9 E 15 15 8 8 1016.4 - 0.0
21/09:00pm 23.8 20.6 5.2 30 9.3 E 11 15 6 8 1016.3 1016.2 0.0
21/08:30pm 24.0 20.9 5.4 30 9.4 ESE 11 17 6 9 1015.9 - 0.0
21/08:00pm 26.8 23.7 5.7 26 10.9 SSW 11 11 6 6 1015.8 - 0.0
21/07:30pm 28.6 24.9 6.1 24 11.8 WSW 15 19 8 10 1015.9 - 0.0
21/07:00pm 30.8 26.8 0.2 14 14.8 NE 11 13 6 7 1015.2 - 0.0
21/06:30pm 33.5 28.9 -1.0 11 16.6 NNE 13 15 7 8 1015.1 - 0.0
21/06:00pm 35.2 29.5 -1.0 10 17.6 NNE 19 24 10 13 1015.2 1015.0 0.0
21/05:30pm 35.9 30.4 -1.9 9 18.2 N 17 26 9 14 1015.3 - 0.0
21/05:00pm 36.2 30.2 -1.7 9 18.4 N 20 28 11 15 1015.4 - 0.0
21/04:30pm 36.2 30.4 -1.7 9 18.4 N 19 26 10 14 1015.5 - 0.0
21/04:00pm 36.4 30.8 -0.1 10 18.2 N 19 26 10 14 1015.7 - 0.0
21/03:30pm 35.8 28.8 -0.5 10 17.9 N 26 33 14 18 1016.0 - 0.0
21/03:00pm 35.8 28.0 -0.5 10 17.9 N 30 37 16 20 1016.2 1016.1 0.0
21/02:30pm 36.2 28.9 -0.2 10 18.1 N 28 39 15 21 1016.7 - 0.0
21/02:00pm 36.3 29.3 -0.2 10 18.1 N 26 33 14 18 1017.0 - 0.0
21/01:30pm 35.3 28.8 0.4 11 17.4 N 24 32 13 17 1017.5 - 0.0
21/01:00pm 35.4 28.7 1.7 12 17.2 N 26 33 14 18 1017.9 - 0.0
21/12:30pm 33.6 26.9 1.4 13 16.1 N 26 35 14 19 1018.4 - 0.0
21/12:00pm 33.3 26.2 1.2 13 16.0 N 28 39 15 21 1018.6 1018.5 0.0
21/11:30am 36.2 28.1 1.1 11 17.8 N 33 44 18 24 1018.5 - 0.0
21/11:00am 35.1 27.6 1.5 12 17.0 N 30 39 16 21 1018.5 - 0.0
21/10:30am 34.5 26.4 1.0 12 16.8 NNE 33 44 18 24 1018.6 - 0.0
21/10:00am 33.0 25.5 0.9 13 15.9 NNE 30 43 16 23 1018.7 - 0.0
21/09:30am 31.1 23.3 1.4 15 14.7 NNE 32 46 17 25 1018.8 - 0.0
21/09:02am 30.5 23.5 1.9 16 14.2 NNE 28 46 15 25 1018.8 - 0.0
21/09:00am 30.5 23.9 1.9 16 14.1 NNE 26 39 14 21 1018.8 1018.7 0.0
21/08:30am 28.1 23.1 3.7 21 12.3 NNE 19 28 10 15 1018.7 - 0.0
21/08:00am 25.0 20.5 4.2 26 10.4 NE 17 22 9 12 1018.5 - 0.0
21/07:30am 22.6 18.9 4.6 31 8.9 ENE 13 17 7 9 1018.2 - 0.0
21/07:00am 20.7 16.2 4.3 34 7.9 ENE 17 20 9 11 1017.8 - 0.0
21/06:30am 20.2 15.3 3.9 34 7.8 ENE 19 20 10 11 1017.5 - 0.0
21/06:00am 19.5 15.0 4.4 37 7.2 ENE 17 20 9 11 1017.4 1017.3 0.0
21/05:30am 18.4 14.0 4.6 40 6.6 ENE 17 19 9 10 1017.2 - 0.0
21/05:00am 18.5 14.1 4.7 40 6.6 ENE 17 19 9 10 1017.3 - 0.0
21/04:30am 19.8 15.3 4.3 36 7.5 ENE 17 19 9 10 1017.2 - 0.0
21/04:00am 21.6 16.7 4.2 32 8.5 ENE 19 24 10 13 1017.3 - 0.0
21/03:30am 23.1 17.7 4.6 30 9.2 ENE 22 32 12 17 1017.4 - 0.0
21/03:00am 23.5 18.1 4.5 29 9.4 ENE 22 33 12 18 1017.5 1017.4 0.0
21/02:30am 24.0 18.3 4.9 29 9.6 ENE 24 33 13 18 1017.8 - 0.0
21/02:00am 23.1 18.4 5.1 31 9.0 ENE 19 22 10 12 1018.0 - 0.0
21/01:30am 22.4 18.1 5.4 33 8.5 E 17 20 9 11 1018.3 - 0.0
21/01:00am 23.0 18.2 5.4 32 8.8 E 20 30 11 16 1018.6 - 0.0
21/12:30am 22.8 18.0 5.7 33 8.6 E 20 26 11 14 1019.0 - 0.0
21/12:00am 23.2 18.4 5.6 32 8.9 E 20 26 11 14 1019.3 1019.2 0.0
 
Date/Time
CDT
Temp
°C
App
Temp
°C
Dew
Point
Rel
Hum
%
Delta-T
°C
Wind Press
QNH
hPa
Press
MSL
hPa
Rain
since 9 am
mm
Dir
 
Spd
km/h
Gust
km/h
Spd
kts
Gust
kts
20/11:30pm 22.0 17.4 5.8 35 8.1 E 19 20 10 11 1019.5 - 0.0
20/11:00pm 21.0 17.1 6.9 40 7.2 ESE 17 20 9 11 1019.7 - 0.0
20/10:30pm 20.8 17.1 7.8 43 6.7 ESE 17 19 9 10 1019.7 - 0.0
20/10:00pm 21.9 18.0 8.8 43 7.0 ESE 19 22 10 12 1019.8 - 0.0
20/09:30pm 22.0 18.1 9.5 45 6.7 ESE 20 24 11 13 1019.6 - 0.0
20/09:00pm 21.6 17.9 9.5 46 6.5 ESE 19 22 10 12 1019.5 1019.4 0.0
20/08:30pm 22.7 18.3 8.8 41 7.4 SE 22 26 12 14 1019.1 - 0.0
20/08:00pm 24.7 20.0 7.8 34 9.0 SE 22 30 12 16 1018.8 - 0.0
20/07:30pm 26.7 22.4 7.2 29 10.4 SE 19 22 10 12 1018.6 - 0.0

Other Formats:

Comma delimited format used in spreadsheet applications
http://www.bom.gov.au/fwo/IDS60801/IDS60801.94685.axf

JavaScript Object Notation format (JSON) in row-major order
http://www.bom.gov.au/fwo/IDS60801/IDS60801.94685.json